< < Back
Terminal Aerodrome Forecast


Current Version              Previous Versions:   1  2  3  4  5  6  7  8  9  

Terminal Aerodrome Forecast

810
FTUS44 KBMX 212300 RRA
TAFBHM
TAF
KBHM 212346Z 2200/2224 VRB03KT P6SM SKC
     FM220600 VRB03KT P6SM SCT250
     FM221600 11007KT P6SM BKN050=

Latest METAR

853
SAUS70 KWBC 220000
MTRBHM
METAR KBHM 212353Z 07004KT 10SM CLR 14/04 A3036 RMK AO2 SLP281 10170
20139 T01390039 52009


USA.gov is the U.S. government's official web portal to all federal, state and local government web resources and services.